createdAt,value
2022-09-23T00:00:05.149Z,5.93
2022-09-23T00:03:08.143Z,5.79
2022-09-23T00:06:13.151Z,5.87
2022-09-23T00:09:15.855Z,5.74
2022-09-23T00:12:18.371Z,5.75
2022-09-23T00:15:21.750Z,5.61
2022-09-23T00:18:24.286Z,5.61
2022-09-23T00:21:27.302Z,5.63
2022-09-23T00:24:32.451Z,5.63
2022-09-23T00:27:36.352Z,5.65
2022-09-23T00:30:41.090Z,5.68
2022-09-23T00:33:43.868Z,5.62
2022-09-23T00:36:46.295Z,5.65
2022-09-23T00:39:49.100Z,5.68
2022-09-23T00:42:52.189Z,5.60
2022-09-23T00:45:55.295Z,5.55
2022-09-23T00:49:04.681Z,5.51
2022-09-23T00:52:11.476Z,5.43
2022-09-23T00:55:18.565Z,5.39
2022-09-23T00:58:28.434Z,5.32
2022-09-23T01:01:31.100Z,5.22
2022-09-23T01:04:34.439Z,5.28
2022-09-23T01:07:36.875Z,5.31
2022-09-23T01:11:21.225Z,5.43
2022-09-23T01:14:42.154Z,5.29
2022-09-23T01:17:53.656Z,5.27
2022-09-23T01:21:11.149Z,5.28
2022-09-23T01:24:34.924Z,5.27
2022-09-23T01:27:56.422Z,5.20
2022-09-23T01:31:37.214Z,5.30
2022-09-23T01:34:50.184Z,5.22
2022-09-23T01:38:08.879Z,5.18
2022-09-23T01:41:32.954Z,5.08
2022-09-23T01:44:48.332Z,5.19
2022-09-23T01:48:28.156Z,5.15
2022-09-23T01:51:37.972Z,5.35
2022-09-23T01:54:47.361Z,5.13
2022-09-23T01:57:58.183Z,5.21
2022-09-23T02:01:04.374Z,5.18
2022-09-23T02:04:11.582Z,5.14
2022-09-23T02:07:33.840Z,5.19
2022-09-23T02:10:47.177Z,5.26
2022-09-23T02:14:00.299Z,5.26
2022-09-23T02:17:08.582Z,5.19
2022-09-23T02:20:14.952Z,5.21
2022-09-23T02:23:45.132Z,5.18
2022-09-23T02:26:54.476Z,5.20
2022-09-23T02:30:03.262Z,5.11
2022-09-23T02:33:08.751Z,5.11
2022-09-23T02:36:26.150Z,4.90
2022-09-23T02:39:38.363Z,5.05
2022-09-23T02:43:19.874Z,5.06
2022-09-23T02:46:23.269Z,5.02
2022-09-23T02:49:29.450Z,4.93
2022-09-23T02:52:33.050Z,4.91
2022-09-23T02:55:35.780Z,4.86
2022-09-23T02:58:38.208Z,4.83
2022-09-23T03:02:13.548Z,4.73
2022-09-23T03:05:24.025Z,4.75
2022-09-23T03:08:32.791Z,4.76
2022-09-23T03:11:38.518Z,4.68
2022-09-23T03:14:57.291Z,4.63
2022-09-23T03:18:23.631Z,4.65
2022-09-23T03:21:29.094Z,4.62
2022-09-23T03:24:32.697Z,4.58
2022-09-23T03:27:36.677Z,4.65
2022-09-23T03:30:39.916Z,4.63
2022-09-23T03:33:46.947Z,4.60
2022-09-23T03:36:55.976Z,4.55
2022-09-23T03:40:25.958Z,4.61
2022-09-23T03:43:30.741Z,4.71
2022-09-23T03:46:35.509Z,4.85
2022-09-23T03:49:39.827Z,4.74
2022-09-23T03:52:42.807Z,4.74
2022-09-23T03:55:47.181Z,4.71
2022-09-23T03:58:49.911Z,4.78
2022-09-23T04:01:53.192Z,4.70
2022-09-23T04:04:56.156Z,4.69
2022-09-23T04:07:58.577Z,4.64
2022-09-23T04:11:02.182Z,4.63
2022-09-23T04:14:04.768Z,4.59
2022-09-23T04:17:07.544Z,4.60
2022-09-23T04:20:10.286Z,4.58
2022-09-23T04:23:13.254Z,4.60
2022-09-23T04:26:15.946Z,4.54
2022-09-23T04:29:18.656Z,4.47
2022-09-23T04:32:21.050Z,4.53
2022-09-23T04:35:23.787Z,4.40
2022-09-23T04:38:26.683Z,4.43
2022-09-23T04:41:29.703Z,4.35
2022-09-23T04:44:32.153Z,4.25
2022-09-23T04:47:34.875Z,4.31
2022-09-23T04:50:37.756Z,4.31
2022-09-23T04:53:42.870Z,4.22
2022-09-23T04:56:45.266Z,4.28
2022-09-23T04:59:48.769Z,4.25
2022-09-23T05:02:51.362Z,4.30
2022-09-23T05:05:55.248Z,4.36
2022-09-23T05:08:58.633Z,4.51
2022-09-23T05:12:02.149Z,4.47
2022-09-23T05:15:05.206Z,4.55
2022-09-23T05:18:07.948Z,4.67
2022-09-23T05:21:12.664Z,4.70
2022-09-23T05:24:16.753Z,4.79
2022-09-23T05:27:19.944Z,4.85
2022-09-23T05:30:22.641Z,4.97
2022-09-23T05:33:25.059Z,5.09
2022-09-23T05:36:31.140Z,5.23
2022-09-23T05:39:36.495Z,5.29
2022-09-23T05:42:39.239Z,5.37
2022-09-23T05:45:41.648Z,5.46
2022-09-23T05:48:48.085Z,5.59
2022-09-23T05:51:50.509Z,5.69
2022-09-23T05:54:53.894Z,5.78
2022-09-23T05:57:56.567Z,5.92
2022-09-23T06:00:59.289Z,6.05
2022-09-23T06:04:04.184Z,6.23
2022-09-23T06:07:06.636Z,6.38
2022-09-23T06:10:09.723Z,6.58
2022-09-23T06:13:12.722Z,6.75
2022-09-23T06:16:16.218Z,6.87
2022-09-23T06:19:19.239Z,7.03
2022-09-23T06:22:24.765Z,7.17
2022-09-23T06:25:27.298Z,7.40
2022-09-23T06:28:32.275Z,7.52
2022-09-23T06:31:34.792Z,7.75
2022-09-23T06:34:48.383Z,7.90
2022-09-23T06:37:55.874Z,8.12
2022-09-23T06:40:58.689Z,8.42
2022-09-23T06:44:01.318Z,8.67
2022-09-23T06:47:04.051Z,8.93
2022-09-23T06:50:07.407Z,9.33
2022-09-23T06:53:10.188Z,9.59
2022-09-23T06:56:13.280Z,9.87
2022-09-23T06:59:17.085Z,10.35
2022-09-23T07:02:19.682Z,11.48
2022-09-23T07:05:22.700Z,12.76
2022-09-23T07:08:27.225Z,13.64
2022-09-23T07:11:29.984Z,14.63
2022-09-23T07:14:32.708Z,14.92
2022-09-23T07:17:35.486Z,15.65
2022-09-23T07:20:38.499Z,15.91
2022-09-23T07:23:46.613Z,15.81
2022-09-23T07:26:49.715Z,16.20
2022-09-23T07:29:53.189Z,16.74
2022-09-23T07:32:55.660Z,17.25
2022-09-23T07:35:58.401Z,18.45
2022-09-23T07:39:03.721Z,17.41
2022-09-23T07:42:06.582Z,17.98
2022-09-23T07:45:09.363Z,17.90
2022-09-23T07:48:12.220Z,17.81
2022-09-23T07:51:23.633Z,19.02
2022-09-23T07:54:29.996Z,19.49
2022-09-23T07:57:33.296Z,19.61
2022-09-23T08:00:36.263Z,18.83
2022-09-23T08:03:39.519Z,20.38
2022-09-23T08:06:43.491Z,20.13
2022-09-23T08:09:46.209Z,20.47
2022-09-23T08:12:48.992Z,20.29
2022-09-23T08:15:55.363Z,21.65
2022-09-23T08:18:58.205Z,21.35
2022-09-23T08:22:00.948Z,21.38
2022-09-23T08:25:03.912Z,22.31
2022-09-23T08:28:08.111Z,22.11
2022-09-23T08:31:13.660Z,22.29
2022-09-23T08:34:20.619Z,22.65
2022-09-23T08:37:23.148Z,21.63
2022-09-23T08:40:25.905Z,21.20
2022-09-23T08:43:33.414Z,22.37
2022-09-23T08:46:39.789Z,22.73
2022-09-23T08:49:51.068Z,22.43
2022-09-23T08:53:00.432Z,19.83
2022-09-23T08:56:11.505Z,22.70
2022-09-23T08:59:22.341Z,23.08
2022-09-23T09:02:24.919Z,23.25
2022-09-23T09:05:28.099Z,24.90
2022-09-23T09:08:35.876Z,22.68
2022-09-23T09:11:48.369Z,23.54
2022-09-23T09:15:07.970Z,25.37
2022-09-23T09:18:21.648Z,25.48
2022-09-23T09:21:37.631Z,25.75
2022-09-23T09:24:40.351Z,25.29
2022-09-23T09:27:43.041Z,23.68
2022-09-23T09:30:48.913Z,22.86
2022-09-23T09:33:59.965Z,24.62
2022-09-23T09:37:15.704Z,25.55
2022-09-23T09:40:18.358Z,25.26
2022-09-23T09:43:24.347Z,24.87
2022-09-23T09:46:51.684Z,26.50
2022-09-23T09:50:09.804Z,22.62
2022-09-23T09:53:15.234Z,25.17
2022-09-23T09:56:20.719Z,25.65
2022-09-23T09:59:28.468Z,24.71
2022-09-23T10:02:34.371Z,25.19
2022-09-23T10:05:46.233Z,25.21
2022-09-23T10:09:01.691Z,24.51
2022-09-23T10:12:15.515Z,26.43
2022-09-23T10:15:31.389Z,26.39
2022-09-23T10:18:40.034Z,26.83
2022-09-23T10:21:42.854Z,24.43
2022-09-23T10:24:50.579Z,27.68
2022-09-23T10:27:53.134Z,25.90
2022-09-23T10:31:06.471Z,26.31
2022-09-23T10:34:29.504Z,26.71
2022-09-23T10:37:35.802Z,27.08
2022-09-23T10:40:58.269Z,26.14
2022-09-23T10:44:40.109Z,27.25
2022-09-23T10:47:50.783Z,25.51
2022-09-23T10:50:54.248Z,26.02
2022-09-23T10:54:01.748Z,24.55
2022-09-23T10:57:42.983Z,24.52
2022-09-23T11:00:57.316Z,24.57
2022-09-23T11:04:26.137Z,26.08
2022-09-23T11:07:37.512Z,24.53
2022-09-23T11:10:53.026Z,23.89
2022-09-23T11:14:03.392Z,25.12
2022-09-23T11:17:19.436Z,24.80
2022-09-23T11:20:50.194Z,25.61
2022-09-23T11:23:55.549Z,22.69
2022-09-23T11:27:10.870Z,25.05
2022-09-23T11:30:16.754Z,23.39
2022-09-23T11:33:36.856Z,23.84
2022-09-23T11:37:05.888Z,24.02
2022-09-23T11:40:19.158Z,25.30
2022-09-23T11:43:24.552Z,25.12
2022-09-23T11:46:41.044Z,23.88
2022-09-23T11:49:51.677Z,24.02
2022-09-23T11:53:17.843Z,24.35
2022-09-23T11:56:34.859Z,23.42
2022-09-23T11:59:52.212Z,21.58
2022-09-23T12:03:17.874Z,20.10
2022-09-23T12:06:46.517Z,19.10
2022-09-23T12:10:00.265Z,19.05
2022-09-23T12:13:13.228Z,18.93
2022-09-23T12:16:44.496Z,18.19
2022-09-23T12:20:09.396Z,18.11
2022-09-23T12:23:21.019Z,17.76
2022-09-23T12:26:25.177Z,17.38
2022-09-23T12:29:30.254Z,17.43
2022-09-23T12:32:34.041Z,17.40
2022-09-23T12:35:42.551Z,17.51
2022-09-23T12:38:50.793Z,17.58
2022-09-23T12:42:11.104Z,17.63
2022-09-23T12:45:38.637Z,17.59
2022-09-23T12:48:58.198Z,17.37
2022-09-23T12:52:16.438Z,17.17
2022-09-23T12:55:24.449Z,17.00
2022-09-23T12:58:57.675Z,17.25
2022-09-23T13:02:24.995Z,17.36
2022-09-23T13:05:47.364Z,17.42
2022-09-23T13:08:49.996Z,17.48
2022-09-23T13:11:53.564Z,17.34
2022-09-23T13:15:00.776Z,17.48
2022-09-23T13:18:18.623Z,17.49
2022-09-23T13:21:42.654Z,17.51
2022-09-23T13:24:55.658Z,17.40
2022-09-23T13:28:01.392Z,17.45
2022-09-23T13:31:14.108Z,17.33
2022-09-23T13:34:20.337Z,17.12
2022-09-23T13:37:26.564Z,17.05
2022-09-23T13:40:29.965Z,16.96
2022-09-23T13:43:40.904Z,16.84
2022-09-23T13:46:47.589Z,16.72
2022-09-23T13:49:50.697Z,16.56
2022-09-23T13:52:57.764Z,16.58
2022-09-23T13:56:20.894Z,16.53
2022-09-23T13:59:30.111Z,16.47
2022-09-23T14:02:42.688Z,16.50
2022-09-23T14:05:46.410Z,16.53
2022-09-23T14:08:50.363Z,16.40
2022-09-23T14:11:54.610Z,16.33
2022-09-23T14:14:57.234Z,16.35
2022-09-23T14:18:03.548Z,16.26
2022-09-23T14:21:06.934Z,16.17
2022-09-23T14:24:18.706Z,16.32
2022-09-23T14:27:30.085Z,16.19
2022-09-23T14:30:32.973Z,16.13
2022-09-23T14:33:40.067Z,16.07
2022-09-23T14:37:01.482Z,16.02
2022-09-23T14:40:09.087Z,15.96
2022-09-23T14:43:23.203Z,15.94
2022-09-23T14:46:35.019Z,15.94
2022-09-23T14:49:37.750Z,15.84
2022-09-23T14:52:49.372Z,15.80
2022-09-23T14:55:59.635Z,15.76
2022-09-23T14:59:02.331Z,15.68
2022-09-23T15:02:27.566Z,15.67
2022-09-23T15:05:51.023Z,15.63
2022-09-23T15:08:55.417Z,15.56
2022-09-23T15:12:01.201Z,15.54
2022-09-23T15:15:05.937Z,15.52
2022-09-23T15:18:15.737Z,15.31
2022-09-23T15:21:21.522Z,15.32
2022-09-23T15:24:45.269Z,15.28
2022-09-23T15:28:24.341Z,15.26
2022-09-23T15:31:26.986Z,15.21
2022-09-23T15:34:30.964Z,15.16
2022-09-23T15:37:36.334Z,15.18
2022-09-23T15:40:40.438Z,15.12
2022-09-23T15:43:43.084Z,14.95
2022-09-23T15:46:47.220Z,14.96
2022-09-23T15:49:49.863Z,14.82
2022-09-23T15:52:52.740Z,14.81
2022-09-23T15:55:55.230Z,14.76
2022-09-23T15:58:58.003Z,14.77
2022-09-23T16:02:05.840Z,14.67
2022-09-23T16:05:37.881Z,14.53
2022-09-23T16:08:42.329Z,14.35
2022-09-23T16:11:47.077Z,14.23
2022-09-23T16:14:49.548Z,14.23
2022-09-23T16:17:52.263Z,14.13
2022-09-23T16:20:54.890Z,13.96
2022-09-23T16:23:59.288Z,13.86
2022-09-23T16:27:04.775Z,13.74
2022-09-23T16:30:08.114Z,13.65
2022-09-23T16:33:10.561Z,13.64
2022-09-23T16:36:25.387Z,13.53
2022-09-23T16:39:28.009Z,13.40
2022-09-23T16:42:30.782Z,13.15
2022-09-23T16:45:33.435Z,12.91
2022-09-23T16:48:40.636Z,12.66
2022-09-23T16:51:43.195Z,12.45
2022-09-23T16:54:48.504Z,12.28
2022-09-23T16:57:51.437Z,12.09
2022-09-23T17:01:15.950Z,11.97
2022-09-23T17:04:19.468Z,11.98
2022-09-23T17:07:22.150Z,11.71
2022-09-23T17:10:24.584Z,11.60
2022-09-23T17:13:28.491Z,11.46
2022-09-23T17:16:32.795Z,11.24
2022-09-23T17:19:37.826Z,11.18
2022-09-23T17:22:41.059Z,11.06
2022-09-23T17:25:48.138Z,10.97
2022-09-23T17:28:57.538Z,10.87
2022-09-23T17:32:00.289Z,10.85
2022-09-23T17:35:04.706Z,10.81
2022-09-23T17:38:07.519Z,10.89
2022-09-23T17:41:09.967Z,10.90
2022-09-23T17:44:12.756Z,10.76
2022-09-23T17:47:15.209Z,10.64
2022-09-23T17:50:18.515Z,10.44
2022-09-23T17:53:21.001Z,10.34
2022-09-23T17:56:25.324Z,10.21
2022-09-23T17:59:28.223Z,10.14
2022-09-23T18:02:30.951Z,10.09
2022-09-23T18:05:33.649Z,9.99
2022-09-23T18:08:36.717Z,9.87
2022-09-23T18:11:42.561Z,9.78
2022-09-23T18:14:45.400Z,9.71
2022-09-23T18:17:48.105Z,9.70
2022-09-23T18:20:50.572Z,9.58
2022-09-23T18:23:53.374Z,9.59
2022-09-23T18:26:59.556Z,9.53
2022-09-23T18:30:02.561Z,9.48
2022-09-23T18:33:05.232Z,9.38
2022-09-23T18:36:08.754Z,9.40
2022-09-23T18:39:11.459Z,9.32
2022-09-23T18:42:14.279Z,9.36
2022-09-23T18:45:16.730Z,9.26
2022-09-23T18:48:38.288Z,9.14
2022-09-23T18:51:55.833Z,9.09
2022-09-23T18:55:00.057Z,9.02
2022-09-23T18:58:02.888Z,8.95
2022-09-23T19:01:09.885Z,9.05
2022-09-23T19:04:13.855Z,8.93
2022-09-23T19:07:17.086Z,8.94
2022-09-23T19:10:19.758Z,8.89
2022-09-23T19:13:22.588Z,8.79
2022-09-23T19:16:25.959Z,8.77
2022-09-23T19:19:29.410Z,8.76
2022-09-23T19:22:32.795Z,8.73
2022-09-23T19:25:36.267Z,8.72
2022-09-23T19:28:39.532Z,8.75
2022-09-23T19:31:42.595Z,8.82
2022-09-23T19:34:46.283Z,8.74
2022-09-23T19:37:49.380Z,8.65
2022-09-23T19:40:52.209Z,8.62
2022-09-23T19:43:55.181Z,8.49
2022-09-23T19:46:57.848Z,8.48
2022-09-23T19:50:00.717Z,8.47
2022-09-23T19:53:07.018Z,8.46
2022-09-23T19:56:09.875Z,8.40
2022-09-23T19:59:17.791Z,8.34
2022-09-23T20:02:21.560Z,8.29
2022-09-23T20:05:25.586Z,8.21
2022-09-23T20:08:28.103Z,8.16
2022-09-23T20:11:32.489Z,8.18
2022-09-23T20:14:34.891Z,8.13
2022-09-23T20:17:40.943Z,8.24
2022-09-23T20:20:43.416Z,8.13
2022-09-23T20:23:46.110Z,8.03
2022-09-23T20:27:07.178Z,8.16
2022-09-23T20:30:11.013Z,8.44
2022-09-23T20:33:15.221Z,8.65
2022-09-23T20:36:18.152Z,8.45
2022-09-23T20:39:20.642Z,8.75
2022-09-23T20:42:23.356Z,8.79
2022-09-23T20:45:25.779Z,8.90
2022-09-23T20:48:29.532Z,8.90
2022-09-23T20:51:35.048Z,9.00
2022-09-23T20:54:41.707Z,8.85
2022-09-23T20:57:45.250Z,8.77
2022-09-23T21:00:48.023Z,8.60
2022-09-23T21:03:52.433Z,8.71
2022-09-23T21:06:57.493Z,8.70
2022-09-23T21:10:02.580Z,8.78
2022-09-23T21:13:06.947Z,8.75
2022-09-23T21:16:12.849Z,8.76
2022-09-23T21:19:15.556Z,8.88
2022-09-23T21:22:18.598Z,8.86
2022-09-23T21:25:29.559Z,8.91
2022-09-23T21:28:34.218Z,8.94
2022-09-23T21:31:38.819Z,8.97
2022-09-23T21:34:41.470Z,8.89
2022-09-23T21:37:44.424Z,8.91
2022-09-23T21:40:58.586Z,8.72
2022-09-23T21:44:04.693Z,8.66
2022-09-23T21:47:07.338Z,8.45
2022-09-23T21:50:10.119Z,8.25
2022-09-23T21:53:12.557Z,8.08
2022-09-23T21:56:21.132Z,7.93
2022-09-23T21:59:23.804Z,7.82
2022-09-23T22:02:27.538Z,7.74
2022-09-23T22:05:30.283Z,7.68
2022-09-23T22:08:37.032Z,7.69
2022-09-23T22:12:15.919Z,7.67
2022-09-23T22:15:19.687Z,7.63
2022-09-23T22:18:22.507Z,7.57
2022-09-23T22:21:26.829Z,7.63
2022-09-23T22:24:29.554Z,7.58
2022-09-23T22:27:32.017Z,7.58
2022-09-23T22:30:53.321Z,7.56
2022-09-23T22:33:55.746Z,7.45
2022-09-23T22:37:00.424Z,7.45
2022-09-23T22:40:08.570Z,7.39
2022-09-23T22:43:11.431Z,7.40
2022-09-23T22:46:15.326Z,7.32
2022-09-23T22:49:20.344Z,7.29
2022-09-23T22:52:24.552Z,7.23
2022-09-23T22:55:28.016Z,7.15
2022-09-23T22:58:32.557Z,7.14
2022-09-23T23:01:35.973Z,7.09
2022-09-23T23:04:38.407Z,7.04
2022-09-23T23:07:41.858Z,7.03
2022-09-23T23:10:44.285Z,7.06
2022-09-23T23:13:46.951Z,7.08
2022-09-23T23:16:49.655Z,7.01
2022-09-23T23:19:52.437Z,7.07
2022-09-23T23:22:54.993Z,7.13
2022-09-23T23:25:57.682Z,7.16
2022-09-23T23:29:02.094Z,7.14
2022-09-23T23:32:05.996Z,7.13
2022-09-23T23:35:09.033Z,7.13
2022-09-23T23:38:12.721Z,7.13
2022-09-23T23:41:22.683Z,7.14
2022-09-23T23:44:26.405Z,7.18
2022-09-23T23:47:28.866Z,7.20
2022-09-23T23:50:31.605Z,7.15
2022-09-23T23:53:36.047Z,7.12
2022-09-23T23:56:38.744Z,7.10
2022-09-23T23:59:41.519Z,7.02
